Sweetwater, Oklahoma
Current Conditions -  °F | °C
As of 5:35 PM on Wednesday 22 Oct 2014 (Local Time) from KELK Reporting Station
Moderate Rain Moderate Rain  
Wind Chill: 59°   Ceiling: 4100
Heat Index: 59°   Visibility: 5mi
Dew Point: 59°   Wind: 8mph
Humidity: 100%   Direction: 190°S
Pressure: 30.15"   Gusts: NA
Location:  35.42°N, 99.91°W
Report Text: KELK 222235Z AUTO 19007KT 5SM RA SCT023 BKN041 OVC049 15/15 A3015 RMK AO2 P0007
Loading
Personal Weather Stations






























Interactive Weather Map
Tropical Storm Tracking
New forecast layout! Learn more

10-Day Weather Forecast

Advertisements
Track Severe Weather on mobile